createdAt,value
2023-09-23T00:12:02.029Z,97735.41
2023-09-23T00:14:37.244Z,97729.38
2023-09-23T00:17:11.524Z,97723.97
2023-09-23T00:19:45.252Z,97718.59
2023-09-23T00:22:19.018Z,97711.53
2023-09-23T00:24:52.354Z,97709.81
2023-09-23T00:37:43.013Z,97690.28
2023-09-23T00:40:23.999Z,97694.03
2023-09-23T00:42:57.624Z,97681.56
2023-09-23T00:45:31.088Z,97670.09
2023-09-23T00:48:06.374Z,97667.41
2023-09-23T01:04:22.020Z,97660.66
2023-09-23T01:06:55.309Z,97656.25
2023-09-23T01:09:29.034Z,97673.41
2023-09-23T01:12:02.380Z,97687.88
2023-09-23T01:14:36.021Z,97687.88
2023-09-23T01:17:10.671Z,97677.44
2023-09-23T01:19:46.287Z,97690.91
2023-09-23T01:29:57.988Z,97713.63
2023-09-23T01:32:52.049Z,97714.63
2023-09-23T01:35:25.282Z,97726.22
2023-09-23T01:37:59.068Z,97730.94
2023-09-23T01:40:33.938Z,97739.31
2023-09-23T01:43:07.031Z,97738.31
2023-09-23T01:56:43.033Z,97732.22
2023-09-23T01:59:16.282Z,97737.63
2023-09-23T02:01:50.033Z,97748.38
2023-09-23T02:04:23.404Z,97740.47
2023-09-23T02:06:57.043Z,97736.97
2023-09-23T02:09:30.482Z,97732.56
2023-09-23T02:25:46.418Z,97758.09
2023-09-23T02:28:20.300Z,97762.81
2023-09-23T02:30:54.071Z,97765.50
2023-09-23T02:33:27.243Z,97761.13
2023-09-23T02:36:01.029Z,97766.66
2023-09-23T02:38:34.432Z,97756.03
2023-09-23T02:51:25.001Z,97763.59
2023-09-23T02:54:05.049Z,97778.06
2023-09-23T02:56:41.039Z,97778.22
2023-09-23T02:59:15.174Z,97779.22
2023-09-23T03:01:48.926Z,97791.66
2023-09-23T03:04:23.035Z,97796.22
2023-09-23T03:17:35.136Z,97808.44
2023-09-23T03:20:09.553Z,97809.59
2023-09-23T03:22:43.023Z,97822.22
2023-09-23T03:25:16.564Z,97831.28
2023-09-23T03:27:50.507Z,97835.97
2023-09-23T03:30:24.519Z,97842.34
2023-09-23T03:43:43.019Z,97844.63
2023-09-23T03:46:23.039Z,97850.00
2023-09-23T03:48:56.367Z,97850.97
2023-09-23T03:51:30.015Z,97848.28
2023-09-23T03:54:03.874Z,97857.19
2023-09-23T03:56:37.017Z,97859.06
2023-09-23T03:59:12.276Z,97867.13
2023-09-23T04:12:03.005Z,97900.69
2023-09-23T04:14:45.043Z,97902.53
2023-09-23T04:17:18.328Z,97900.00
2023-09-23T04:19:52.101Z,97902.69
2023-09-23T04:22:25.450Z,97906.38
2023-09-23T04:24:59.029Z,97909.34
2023-09-23T04:38:11.078Z,97925.13
2023-09-23T04:40:44.366Z,97928.78
2023-09-23T04:43:18.074Z,97933.34
2023-09-23T04:45:51.285Z,97935.19
2023-09-23T04:48:25.073Z,97942.41
2023-09-23T05:05:02.061Z,97957.16
2023-09-23T05:07:42.016Z,97960.84
2023-09-23T05:10:15.361Z,97970.75
2023-09-23T05:12:49.035Z,97974.44
2023-09-23T05:15:22.308Z,97974.44
2023-09-23T05:17:56.099Z,97977.13
2023-09-23T05:20:31.229Z,97974.59
2023-09-23T05:30:40.199Z,97998.06
2023-09-23T05:33:13.268Z,98013.34
2023-09-23T05:35:49.493Z,98015.03
2023-09-23T05:38:23.304Z,98005.56
2023-09-23T05:40:57.064Z,97998.50
2023-09-23T05:43:30.396Z,97998.50
2023-09-23T05:59:46.001Z,98018.59
2023-09-23T06:02:19.284Z,98032.03
2023-09-23T06:04:53.019Z,98023.09
2023-09-23T06:07:30.962Z,98025.94
2023-09-23T06:10:05.067Z,98034.16
2023-09-23T06:26:32.266Z,98046.03
2023-09-23T06:28:59.269Z,98049.56
2023-09-23T06:31:40.031Z,98067.53
2023-09-23T06:34:13.263Z,98068.38
2023-09-23T06:36:47.492Z,98086.19
2023-09-23T06:39:21.251Z,98088.88
2023-09-23T06:52:11.985Z,98097.22
2023-09-23T06:54:52.072Z,98098.09
2023-09-23T06:57:25.304Z,98096.41
2023-09-23T06:59:59.049Z,98096.41
2023-09-23T07:02:32.369Z,98105.44
2023-09-23T07:05:06.045Z,98106.16
2023-09-23T07:18:02.078Z,98120.16
2023-09-23T07:20:35.562Z,98129.06
2023-09-23T07:23:10.095Z,98144.34
2023-09-23T07:25:43.457Z,98147.88
2023-09-23T07:28:17.040Z,98152.97
2023-09-23T07:30:50.323Z,98143.88
2023-09-23T07:33:26.053Z,98159.75
2023-09-23T07:46:36.032Z,98183.34
2023-09-23T07:49:11.186Z,98180.66
2023-09-23T07:51:45.033Z,98188.72
2023-09-23T07:54:18.945Z,98180.66
2023-09-23T07:56:54.009Z,98172.44
2023-09-23T07:59:27.302Z,98173.31
2023-09-23T08:12:18.003Z,98183.47
2023-09-23T08:14:59.015Z,98182.47
2023-09-23T08:17:34.414Z,98201.00
2023-09-23T08:20:08.092Z,98205.41
2023-09-23T08:22:41.252Z,98202.41
2023-09-23T08:25:15.024Z,98191.63
2023-09-23T08:38:27.093Z,98206.59
2023-09-23T08:41:05.560Z,98205.59
2023-09-23T08:43:51.360Z,98213.53
2023-09-23T08:46:34.115Z,98214.22
2023-09-23T08:49:14.019Z,98210.38
2023-09-23T08:51:47.475Z,98218.19
2023-09-23T08:54:26.010Z,98222.41
2023-09-23T09:04:40.074Z,98231.28
2023-09-23T09:07:20.025Z,98222.38
2023-09-23T09:09:55.187Z,98225.06
2023-09-23T09:12:29.055Z,98218.69
2023-09-23T09:15:02.602Z,98239.19
2023-09-23T09:17:38.168Z,98238.22
2023-09-23T09:20:13.443Z,98239.91
2023-09-23T09:33:07.060Z,98258.59
2023-09-23T09:35:47.025Z,98266.81
2023-09-23T09:38:22.914Z,98265.44
2023-09-23T09:40:58.065Z,98255.34
2023-09-23T09:43:31.972Z,98257.06
2023-09-23T09:59:50.027Z,98260.72
2023-09-23T10:02:24.273Z,98259.75
2023-09-23T10:04:58.039Z,98255.06
2023-09-23T10:07:49.086Z,98250.41
2023-09-23T10:10:38.022Z,98257.44
2023-09-23T10:13:13.903Z,98256.47
2023-09-23T10:25:58.024Z,98265.09
2023-09-23T10:28:38.027Z,98262.22
2023-09-23T10:31:13.289Z,98278.09
2023-09-23T10:33:47.006Z,98279.94
2023-09-23T10:36:22.318Z,98295.97
2023-09-23T10:38:57.012Z,98288.88
2023-09-23T10:52:19.488Z,98279.09
2023-09-23T10:54:53.563Z,98279.81
2023-09-23T10:57:27.050Z,98279.53
2023-09-23T11:00:00.678Z,98284.63
2023-09-23T11:02:38.131Z,98282.59
2023-09-23T11:05:11.307Z,98277.94
2023-09-23T11:18:26.045Z,98274.97
2023-09-23T11:21:08.050Z,98274.97
2023-09-23T11:23:41.361Z,98280.19
2023-09-23T11:26:15.085Z,98283.72
2023-09-23T11:28:48.395Z,98276.34
2023-09-23T11:31:22.065Z,98279.88
2023-09-23T11:33:57.321Z,98290.19
2023-09-23T11:46:46.005Z,98305.88
2023-09-23T11:49:28.019Z,98310.66
2023-09-23T11:52:01.283Z,98305.94
2023-09-23T11:54:35.313Z,98311.03
2023-09-23T11:57:08.299Z,98307.34
2023-09-23T11:59:42.049Z,98302.78
2023-09-23T12:12:55.035Z,98319.28
2023-09-23T12:15:28.270Z,98324.78
2023-09-23T12:18:02.070Z,98318.41
2023-09-23T12:20:35.355Z,98311.31
2023-09-23T12:23:09.073Z,98313.03
2023-09-23T12:25:43.284Z,98307.63
2023-09-23T12:38:42.034Z,98327.38
2023-09-23T12:41:22.076Z,98332.47
2023-09-23T12:43:55.337Z,98342.66
2023-09-23T12:46:29.036Z,98333.25
2023-09-23T12:49:02.304Z,98342.03
2023-09-23T12:51:36.029Z,98350.78
2023-09-23T12:54:11.226Z,98357.88
2023-09-23T13:07:00.009Z,98378.00
2023-09-23T13:09:42.057Z,98389.63
2023-09-23T13:12:15.285Z,98381.38
2023-09-23T13:14:49.051Z,98383.94
2023-09-23T13:17:22.464Z,98376.56
2023-09-23T13:19:56.027Z,98376.44
2023-09-23T13:33:08.140Z,98391.91
2023-09-23T13:35:41.313Z,98400.84
2023-09-23T13:38:15.070Z,98394.03
2023-09-23T13:40:48.345Z,98407.50
2023-09-23T13:43:23.045Z,98407.50
2023-09-23T14:00:00.009Z,98433.31
2023-09-23T14:02:40.761Z,98423.41
2023-09-23T14:05:14.449Z,98425.97
2023-09-23T14:07:48.046Z,98419.25
2023-09-23T14:10:22.499Z,98412.72
2023-09-23T14:12:57.045Z,98411.72
2023-09-23T14:15:32.199Z,98417.50
2023-09-23T14:25:40.058Z,98415.84
2023-09-23T14:28:13.269Z,98406.47
2023-09-23T14:30:49.058Z,98404.72
2023-09-23T14:33:22.348Z,98413.03
2023-09-23T14:35:56.043Z,98414.09
2023-09-23T14:38:29.469Z,98419.19
2023-09-23T14:54:51.054Z,98439.31
2023-09-23T14:57:24.411Z,98454.06
2023-09-23T14:59:58.055Z,98467.81
2023-09-23T15:02:31.429Z,98469.00
2023-09-23T15:05:05.188Z,98469.66
2023-09-23T15:19:01.023Z,98477.78
2023-09-23T15:21:36.193Z,98489.69
2023-09-23T15:24:10.050Z,98488.94
2023-09-23T15:26:43.586Z,98499.03
2023-09-23T15:29:17.106Z,98500.97
2023-09-23T15:31:50.321Z,98504.66
2023-09-23T15:34:24.095Z,98511.69
2023-09-23T15:47:36.108Z,98536.06
2023-09-23T15:50:09.945Z,98543.78
2023-09-23T15:52:44.028Z,98548.66
2023-09-23T15:55:17.444Z,98548.91
2023-09-23T15:57:51.044Z,98550.06
2023-09-23T16:00:24.434Z,98553.09
2023-09-23T16:13:15.026Z,98564.09
2023-09-23T16:15:55.193Z,98565.41
2023-09-23T16:18:28.332Z,98574.38
2023-09-23T16:21:02.043Z,98586.28
2023-09-23T16:23:35.297Z,98575.81
2023-09-23T16:39:51.074Z,98588.97
2023-09-23T16:42:24.358Z,98576.78
2023-09-23T16:44:58.078Z,98583.31
2023-09-23T16:47:32.467Z,98585.31
2023-09-23T16:50:06.093Z,98589.19
2023-09-23T16:52:39.565Z,98591.31
2023-09-23T16:55:16.837Z,98597.00
2023-09-23T17:08:29.215Z,98600.47
2023-09-23T17:11:06.668Z,98593.69
2023-09-23T17:13:40.542Z,98602.78
2023-09-23T17:16:14.377Z,98606.75
2023-09-23T17:18:48.157Z,98612.41
2023-09-23T17:32:46.119Z,98628.06
2023-09-23T17:35:21.253Z,98633.03
2023-09-23T17:37:55.065Z,98639.72
2023-09-23T17:40:28.467Z,98637.16
2023-09-23T17:43:02.049Z,98638.28
2023-09-23T17:45:36.773Z,98648.38
2023-09-23T17:48:10.235Z,98650.38
2023-09-23T17:50:45.276Z,98656.75
2023-09-23T17:59:53.114Z,98673.63
2023-09-23T18:02:26.544Z,98669.38
2023-09-23T18:05:00.139Z,98685.72
2023-09-23T18:07:35.424Z,98683.13
2023-09-23T18:10:09.077Z,98690.53
2023-09-23T18:12:42.457Z,98692.50
2023-09-23T18:15:17.333Z,98692.78
2023-09-23T18:28:30.058Z,98714.47
2023-09-23T18:31:03.297Z,98719.16
2023-09-23T18:33:37.114Z,98721.13
2023-09-23T18:36:10.361Z,98717.72
2023-09-23T18:38:44.099Z,98714.31
2023-09-23T18:55:21.031Z,98745.75
2023-09-23T18:58:01.061Z,98743.22
2023-09-23T19:00:34.452Z,98740.66
2023-09-23T19:03:08.243Z,98741.78
2023-09-23T19:05:42.055Z,98754.38
2023-09-23T19:08:17.079Z,98758.06
2023-09-23T19:10:52.493Z,98757.34
2023-09-23T19:20:17.551Z,98772.31
2023-09-23T19:22:51.302Z,98776.00
2023-09-23T19:25:25.074Z,98774.28
2023-09-23T19:28:00.603Z,98779.81
2023-09-23T19:30:34.048Z,98779.97
2023-09-23T19:33:07.647Z,98782.66
2023-09-23T19:35:43.100Z,98785.91
2023-09-23T19:48:55.130Z,98816.78
2023-09-23T19:51:28.289Z,98812.47
2023-09-23T19:54:02.056Z,98810.91
2023-09-23T19:56:35.312Z,98812.91
2023-09-23T19:59:09.035Z,98816.56
2023-09-23T20:15:46.105Z,98833.50
2023-09-23T20:18:26.077Z,98839.88
2023-09-23T20:20:59.412Z,98832.81
2023-09-23T20:23:33.472Z,98836.47
2023-09-23T20:26:07.337Z,98830.38
2023-09-23T20:28:41.066Z,98834.91
2023-09-23T20:41:53.138Z,98832.84
2023-09-23T20:44:26.344Z,98834.13
2023-09-23T20:47:00.094Z,98835.09
2023-09-23T20:49:33.935Z,98838.06
2023-09-23T20:52:07.041Z,98845.41
2023-09-23T20:54:40.421Z,98844.66
2023-09-23T21:07:31.034Z,98862.59
2023-09-23T21:10:12.048Z,98863.69
2023-09-23T21:12:45.314Z,98867.38
2023-09-23T21:15:19.075Z,98870.19
2023-09-23T21:17:52.327Z,98878.41
2023-09-23T21:20:26.097Z,98882.06
2023-09-23T21:33:43.132Z,98888.78
2023-09-23T21:36:16.292Z,98885.50
2023-09-23T21:38:50.162Z,98882.81
2023-09-23T21:41:23.414Z,98891.88
2023-09-23T21:43:57.038Z,98896.38
2023-09-23T21:46:30.462Z,98899.19
2023-09-23T21:49:06.066Z,98899.19
2023-09-23T22:02:16.172Z,98907.03
2023-09-23T22:04:51.545Z,98917.78
2023-09-23T22:07:25.044Z,98913.50
2023-09-23T22:09:58.270Z,98920.00
2023-09-23T22:12:32.052Z,98929.03
2023-09-23T22:15:07.756Z,98925.66
2023-09-23T22:28:00.041Z,98928.94
2023-09-23T22:30:40.550Z,98934.56
2023-09-23T22:33:15.292Z,98934.56
2023-09-23T22:35:49.203Z,98936.53
2023-09-23T22:38:22.451Z,98939.47
2023-09-23T22:40:56.068Z,98941.44
2023-09-23T22:54:08.090Z,98946.06
2023-09-23T22:56:41.342Z,98945.09
2023-09-23T22:59:15.080Z,98946.06
2023-09-23T23:01:48.293Z,98946.19
2023-09-23T23:04:22.134Z,98953.50
2023-09-23T23:06:55.400Z,98954.63
2023-09-23T23:09:31.078Z,98948.53
2023-09-23T23:22:41.058Z,98954.13
2023-09-23T23:25:20.102Z,98959.50
2023-09-23T23:28:00.038Z,98957.69
2023-09-23T23:30:33.418Z,98960.25
2023-09-23T23:33:07.700Z,98964.75
2023-09-23T23:35:42.097Z,98963.16
2023-09-23T23:48:33.610Z,98966.81
2023-09-23T23:51:15.049Z,98970.53
2023-09-23T23:53:48.461Z,98977.69
2023-09-23T23:56:22.114Z,98971.50
2023-09-23T23:58:56.346Z,98972.47
